createdAt,value
2019-03-10T00:00:01.593Z,1.50
2019-03-10T00:02:33.477Z,3.20
2019-03-10T00:05:03.631Z,1.50
2019-03-10T00:07:34.409Z,1.92
2019-03-10T00:10:05.761Z,1.57
2019-03-10T00:12:36.207Z,1.60
2019-03-10T00:15:09.256Z,1.90
2019-03-10T00:17:39.491Z,1.70
2019-03-10T00:20:10.564Z,1.80
2019-03-10T00:22:40.615Z,1.60
2019-03-10T00:25:11.461Z,1.90
2019-03-10T00:27:41.564Z,1.43
2019-03-10T00:30:12.063Z,1.57
2019-03-10T00:32:42.434Z,1.60
2019-03-10T00:35:13.137Z,2.00
2019-03-10T00:37:43.610Z,2.00
2019-03-10T00:40:53.683Z,1.60
2019-03-10T00:44:00.051Z,1.35
2019-03-10T00:47:03.258Z,1.50
2019-03-10T00:50:01.897Z,1.83
2019-03-10T00:52:45.330Z,1.60
2019-03-10T00:55:16.603Z,1.77
2019-03-10T00:57:46.900Z,1.80
2019-03-10T01:00:18.240Z,2.83
2019-03-10T01:02:48.341Z,1.60
2019-03-10T01:05:18.798Z,1.47
2019-03-10T01:07:50.071Z,1.40
2019-03-10T01:10:20.247Z,3.17
2019-03-10T01:12:50.989Z,1.50
2019-03-10T01:15:21.102Z,1.80
2019-03-10T01:17:53.253Z,1.70
2019-03-10T01:20:23.351Z,1.70
2019-03-10T01:22:53.470Z,1.67
2019-03-10T01:25:23.693Z,1.60
2019-03-10T01:27:54.032Z,1.90
2019-03-10T01:30:24.237Z,1.60
2019-03-10T01:33:38.745Z,1.53
2019-03-10T01:36:14.512Z,1.53
2019-03-10T01:38:44.877Z,1.90
2019-03-10T01:41:15.293Z,1.90
2019-03-10T01:43:45.381Z,2.20
2019-03-10T01:46:22.204Z,1.60
2019-03-10T01:48:52.290Z,1.63
2019-03-10T01:51:22.574Z,1.63
2019-03-10T01:53:52.762Z,1.67
2019-03-10T01:56:22.929Z,1.67
2019-03-10T01:58:53.214Z,1.90
2019-03-10T02:01:23.338Z,1.40
2019-03-10T02:03:53.461Z,1.60
2019-03-10T02:06:23.620Z,2.63
2019-03-10T02:08:53.827Z,1.90
2019-03-10T02:11:23.888Z,1.73
2019-03-10T02:13:54.050Z,1.63
2019-03-10T02:16:24.409Z,1.80
2019-03-10T02:18:54.481Z,1.50
2019-03-10T02:21:24.662Z,1.87
2019-03-10T02:23:54.751Z,1.87
2019-03-10T02:26:24.860Z,1.80
2019-03-10T02:28:54.998Z,1.87
2019-03-10T02:31:25.309Z,2.20
2019-03-10T02:33:55.439Z,1.60
2019-03-10T02:36:25.530Z,1.83
2019-03-10T02:38:55.683Z,1.60
2019-03-10T02:41:27.316Z,1.83
2019-03-10T02:43:57.433Z,1.87
2019-03-10T02:46:27.470Z,1.83
2019-03-10T02:48:57.789Z,2.20
2019-03-10T02:51:27.927Z,3.10
2019-03-10T02:53:58.012Z,1.60
2019-03-10T02:56:29.839Z,2.17
2019-03-10T02:59:00.001Z,1.77
2019-03-10T03:01:30.444Z,1.73
2019-03-10T03:04:00.589Z,1.80
2019-03-10T03:06:30.705Z,1.70
2019-03-10T03:09:00.730Z,1.80
2019-03-10T03:11:32.528Z,1.60
2019-03-10T03:14:02.683Z,2.03
2019-03-10T03:16:32.800Z,1.57
2019-03-10T03:19:02.988Z,1.70
2019-03-10T03:21:43.095Z,1.40
2019-03-10T03:24:04.970Z,1.80
2019-03-10T03:26:35.145Z,1.83
2019-03-10T03:29:05.321Z,1.60
2019-03-10T03:31:35.461Z,1.90
2019-03-10T03:34:06.697Z,1.47
2019-03-10T03:36:38.244Z,1.63
2019-03-10T03:39:18.034Z,1.97
2019-03-10T03:41:48.288Z,1.40
2019-03-10T03:44:18.363Z,1.33
2019-03-10T03:46:48.582Z,1.30
2019-03-10T03:49:18.947Z,1.47
2019-03-10T03:51:49.094Z,1.20
2019-03-10T03:54:19.162Z,1.10
2019-03-10T03:56:49.272Z,1.20
2019-03-10T03:59:19.323Z,1.30
2019-03-10T04:01:59.730Z,1.23
2019-03-10T04:04:29.865Z,1.20
2019-03-10T04:06:59.966Z,1.70
2019-03-10T04:09:31.438Z,1.40
2019-03-10T04:12:01.532Z,1.20
2019-03-10T04:14:31.951Z,1.33
2019-03-10T04:17:01.980Z,1.33
2019-03-10T04:19:32.779Z,1.50
2019-03-10T04:22:03.032Z,1.30
2019-03-10T04:24:33.362Z,2.10
2019-03-10T04:27:03.544Z,1.80
2019-03-10T04:29:33.878Z,1.30
2019-03-10T04:32:04.022Z,1.30
2019-03-10T04:34:34.185Z,1.50
2019-03-10T04:37:04.251Z,2.57
2019-03-10T04:39:34.311Z,1.33
2019-03-10T04:42:16.519Z,1.13
2019-03-10T04:44:46.666Z,1.20
2019-03-10T04:47:17.409Z,1.42
2019-03-10T04:49:47.724Z,1.30
2019-03-10T04:52:17.760Z,1.50
2019-03-10T04:55:19.047Z,1.33
2019-03-10T04:58:01.110Z,2.17
2019-03-10T05:00:32.299Z,1.30
2019-03-10T05:03:02.405Z,1.40
2019-03-10T05:05:32.519Z,1.40
2019-03-10T05:08:02.858Z,1.40
2019-03-10T05:10:33.273Z,1.43
2019-03-10T05:13:03.299Z,1.97
2019-03-10T05:15:33.270Z,1.40
2019-03-10T05:18:03.342Z,1.77
2019-03-10T05:20:33.415Z,1.77
2019-03-10T05:23:38.137Z,1.40
2019-03-10T05:26:08.452Z,1.30
2019-03-10T05:28:43.685Z,1.67
2019-03-10T05:31:13.723Z,2.70
2019-03-10T05:33:44.147Z,1.83
2019-03-10T05:36:14.445Z,1.77
2019-03-10T05:38:44.638Z,1.70
2019-03-10T05:41:14.739Z,1.47
2019-03-10T05:43:44.789Z,1.70
2019-03-10T05:46:14.842Z,1.40
2019-03-10T05:48:44.909Z,3.20
2019-03-10T05:51:15.051Z,2.20
2019-03-10T05:53:45.355Z,1.80
2019-03-10T05:56:15.494Z,2.00
2019-03-10T05:58:45.709Z,2.03
2019-03-10T06:01:16.996Z,1.97
2019-03-10T06:03:47.308Z,1.97
2019-03-10T06:06:17.393Z,1.73
2019-03-10T06:08:47.628Z,2.63
2019-03-10T06:11:17.708Z,1.60
2019-03-10T06:13:47.931Z,1.53
2019-03-10T06:16:18.012Z,1.50
2019-03-10T06:18:48.114Z,1.50
2019-03-10T06:21:18.582Z,1.65
2019-03-10T06:23:48.687Z,4.10
2019-03-10T06:26:18.839Z,2.00
2019-03-10T06:28:50.857Z,1.70
2019-03-10T06:31:20.892Z,1.77
2019-03-10T06:33:50.974Z,2.30
2019-03-10T06:36:21.437Z,1.50
2019-03-10T06:38:51.799Z,1.60
2019-03-10T06:41:21.979Z,2.07
2019-03-10T06:43:52.248Z,2.17
2019-03-10T06:46:24.099Z,1.60
2019-03-10T06:48:54.146Z,1.83
2019-03-10T06:51:24.238Z,2.30
2019-03-10T06:53:54.627Z,1.40
2019-03-10T06:56:24.783Z,1.90
2019-03-10T06:58:54.896Z,1.53
2019-03-10T07:01:24.979Z,2.10
2019-03-10T07:03:55.188Z,2.13
2019-03-10T07:06:25.399Z,1.60
2019-03-10T07:08:55.667Z,1.93
2019-03-10T07:11:25.906Z,1.87
2019-03-10T07:13:56.229Z,1.67
2019-03-10T07:16:26.366Z,1.77
2019-03-10T07:18:59.829Z,2.13
2019-03-10T07:21:29.907Z,2.40
2019-03-10T07:24:00.071Z,1.73
2019-03-10T07:26:30.223Z,3.73
2019-03-10T07:29:04.876Z,11.60
2019-03-10T07:31:43.776Z,4.30
2019-03-10T07:34:35.960Z,4.83
2019-03-10T07:37:25.663Z,2.10
2019-03-10T07:40:13.544Z,7.87
2019-03-10T07:42:49.830Z,1.50
2019-03-10T07:45:42.057Z,5.00
2019-03-10T07:48:31.243Z,3.60
2019-03-10T07:51:09.815Z,1.73
2019-03-10T07:53:58.990Z,2.27
2019-03-10T07:57:00.224Z,1.80
2019-03-10T08:00:01.360Z,2.00
2019-03-10T08:02:54.989Z,1.83
2019-03-10T08:05:33.994Z,1.70
2019-03-10T08:08:17.274Z,2.30
2019-03-10T08:11:05.188Z,2.00
2019-03-10T08:13:51.590Z,3.10
2019-03-10T08:16:37.380Z,2.80
2019-03-10T08:19:34.328Z,1.50
2019-03-10T08:22:22.141Z,4.27
2019-03-10T08:25:14.204Z,2.03
2019-03-10T08:28:15.339Z,2.00
2019-03-10T08:31:00.536Z,1.30
2019-03-10T08:33:58.754Z,2.40
2019-03-10T08:36:51.118Z,1.50
2019-03-10T08:39:52.297Z,1.53
2019-03-10T08:42:36.000Z,1.30
2019-03-10T08:45:24.695Z,1.97
2019-03-10T08:48:19.920Z,1.43
2019-03-10T08:50:58.078Z,1.40
2019-03-10T08:54:05.753Z,1.40
2019-03-10T08:56:53.180Z,1.20
2019-03-10T08:59:31.735Z,1.87
2019-03-10T09:02:23.934Z,1.50
2019-03-10T09:05:17.441Z,1.57
2019-03-10T09:07:53.643Z,2.77
2019-03-10T09:10:31.760Z,1.33
2019-03-10T09:13:21.122Z,2.00
2019-03-10T09:16:16.327Z,1.80
2019-03-10T09:19:03.069Z,1.80
2019-03-10T09:21:43.908Z,1.70
2019-03-10T09:24:48.800Z,2.13
2019-03-10T09:27:46.046Z,1.80
2019-03-10T09:30:35.267Z,1.57
2019-03-10T09:33:30.614Z,1.50
2019-03-10T09:36:07.104Z,1.37
2019-03-10T09:39:14.466Z,1.90
2019-03-10T09:42:06.265Z,1.40
2019-03-10T09:44:45.787Z,1.33
2019-03-10T09:47:34.472Z,1.40
2019-03-10T09:50:27.138Z,1.30
2019-03-10T09:53:28.660Z,1.67
2019-03-10T09:56:17.787Z,1.10
2019-03-10T09:59:03.017Z,1.20
2019-03-10T10:01:57.860Z,1.23
2019-03-10T10:04:50.104Z,1.43
2019-03-10T10:07:51.578Z,1.77
2019-03-10T10:10:32.771Z,1.73
2019-03-10T10:13:20.413Z,1.53
2019-03-10T10:16:15.662Z,1.40
2019-03-10T10:19:04.939Z,1.67
2019-03-10T10:21:52.842Z,1.47
2019-03-10T10:24:35.790Z,1.87
2019-03-10T10:27:16.463Z,1.37
2019-03-10T10:29:58.648Z,3.43
2019-03-10T10:32:50.881Z,1.37
2019-03-10T10:35:49.181Z,1.30
2019-03-10T10:38:37.846Z,2.85
2019-03-10T10:41:26.708Z,1.60
2019-03-10T10:44:19.624Z,2.60
2019-03-10T10:47:08.982Z,1.50
2019-03-10T10:49:56.459Z,2.33
2019-03-10T10:52:44.601Z,1.57
2019-03-10T10:55:19.837Z,1.20
2019-03-10T10:58:07.651Z,1.60
2019-03-10T11:00:43.601Z,3.00
2019-03-10T11:03:34.918Z,1.70
2019-03-10T11:06:19.903Z,1.50
2019-03-10T11:09:03.008Z,1.33
2019-03-10T11:11:52.695Z,1.50
2019-03-10T11:14:41.857Z,1.27
2019-03-10T11:17:29.961Z,1.40
2019-03-10T11:20:09.672Z,1.60
2019-03-10T11:22:58.563Z,1.50
2019-03-10T11:25:57.078Z,1.97
2019-03-10T11:28:38.167Z,1.37
2019-03-10T11:31:27.263Z,1.50
2019-03-10T11:34:23.767Z,1.60
2019-03-10T11:37:05.452Z,1.70
2019-03-10T11:40:01.207Z,1.50
2019-03-10T11:43:02.363Z,1.40
2019-03-10T11:45:50.201Z,1.33
2019-03-10T11:48:42.195Z,1.50
2019-03-10T11:51:31.377Z,3.00
2019-03-10T11:54:23.526Z,1.50
2019-03-10T11:57:12.705Z,1.37
2019-03-10T11:59:47.748Z,1.40
2019-03-10T12:02:27.305Z,1.35
2019-03-10T12:05:19.603Z,1.30
2019-03-10T12:08:01.558Z,1.50
2019-03-10T12:10:32.006Z,1.50
2019-03-10T12:13:02.240Z,1.47
2019-03-10T12:15:32.209Z,1.30
2019-03-10T12:18:02.362Z,1.80
2019-03-10T12:20:32.500Z,1.30
2019-03-10T12:23:02.753Z,1.30
2019-03-10T12:25:33.047Z,1.63
2019-03-10T12:28:03.215Z,1.50
2019-03-10T12:30:34.757Z,1.50
2019-03-10T12:33:05.127Z,1.40
2019-03-10T12:35:35.595Z,1.70
2019-03-10T12:38:05.727Z,1.50
2019-03-10T12:40:36.210Z,1.50
2019-03-10T12:43:07.408Z,1.40
2019-03-10T12:45:38.126Z,1.33
2019-03-10T12:48:09.485Z,1.40
2019-03-10T12:50:39.569Z,1.40
2019-03-10T12:53:13.795Z,1.50
2019-03-10T12:55:43.947Z,1.30
2019-03-10T12:58:15.753Z,1.30
2019-03-10T13:00:45.961Z,1.47
2019-03-10T13:03:16.749Z,1.50
2019-03-10T13:05:46.984Z,1.17
2019-03-10T13:08:17.412Z,1.30
2019-03-10T13:10:47.723Z,1.50
2019-03-10T13:13:18.311Z,1.37
2019-03-10T13:15:48.547Z,1.23
2019-03-10T13:18:19.010Z,1.70
2019-03-10T13:20:49.408Z,1.60
2019-03-10T13:23:19.597Z,1.20
2019-03-10T13:25:49.802Z,1.53
2019-03-10T13:28:21.287Z,1.53
2019-03-10T13:30:52.173Z,1.57
2019-03-10T13:33:22.573Z,1.40
2019-03-10T13:35:52.823Z,1.40
2019-03-10T13:38:23.124Z,1.30
2019-03-10T13:40:53.904Z,1.87
2019-03-10T13:43:24.075Z,1.60
2019-03-10T13:45:56.083Z,1.30
2019-03-10T13:48:26.593Z,3.00
2019-03-10T13:50:56.896Z,1.13
2019-03-10T13:53:29.126Z,1.40
2019-03-10T13:55:59.623Z,2.07
2019-03-10T13:58:29.927Z,1.40
2019-03-10T14:01:01.124Z,1.33
2019-03-10T14:03:31.790Z,1.30
2019-03-10T14:06:01.965Z,1.50
2019-03-10T14:08:32.359Z,1.30
2019-03-10T14:11:02.669Z,1.40
2019-03-10T14:13:32.789Z,1.40
2019-03-10T14:16:03.064Z,1.27
2019-03-10T14:18:33.247Z,1.20
2019-03-10T14:21:03.673Z,1.30
2019-03-10T14:23:35.315Z,1.30
2019-03-10T14:26:08.956Z,1.60
2019-03-10T14:28:39.431Z,1.20
2019-03-10T14:31:10.328Z,1.33
2019-03-10T14:33:40.767Z,1.33
2019-03-10T14:36:10.918Z,1.40
2019-03-10T14:38:43.447Z,1.50
2019-03-10T14:41:13.903Z,1.20
2019-03-10T14:43:44.312Z,1.30
2019-03-10T14:46:14.699Z,1.30
2019-03-10T14:48:45.122Z,1.20
2019-03-10T14:51:18.744Z,1.40
2019-03-10T14:53:49.191Z,1.23
2019-03-10T14:56:20.994Z,1.30
2019-03-10T14:58:52.732Z,1.30
2019-03-10T15:01:22.887Z,1.30
2019-03-10T15:03:53.115Z,1.30
2019-03-10T15:06:23.434Z,2.33
2019-03-10T15:08:53.968Z,1.60
2019-03-10T15:11:24.169Z,1.20
2019-03-10T15:13:54.477Z,1.10
2019-03-10T15:16:25.010Z,1.30
2019-03-10T15:18:55.292Z,1.30
2019-03-10T15:21:25.509Z,1.23
2019-03-10T15:24:05.055Z,1.33
2019-03-10T15:26:45.110Z,1.20
2019-03-10T15:29:09.196Z,1.40
2019-03-10T15:31:39.448Z,1.33
2019-03-10T15:34:11.304Z,1.10
2019-03-10T15:36:41.921Z,1.40
2019-03-10T15:39:13.544Z,2.20
2019-03-10T15:41:45.413Z,2.50
2019-03-10T15:44:15.703Z,1.87
2019-03-10T15:46:47.016Z,1.40
2019-03-10T15:49:19.984Z,1.50
2019-03-10T15:51:50.295Z,1.33
2019-03-10T15:54:23.500Z,1.27
2019-03-10T15:56:53.705Z,1.77
2019-03-10T15:59:24.358Z,1.50
2019-03-10T16:01:54.833Z,1.50
2019-03-10T16:04:25.567Z,1.20
2019-03-10T16:06:57.181Z,1.50
2019-03-10T16:09:27.420Z,1.27
2019-03-10T16:11:58.591Z,1.10
2019-03-10T16:14:28.840Z,1.70
2019-03-10T16:16:59.462Z,1.70
2019-03-10T16:19:31.212Z,1.33
2019-03-10T16:22:01.432Z,1.30
2019-03-10T16:24:51.243Z,1.50
2019-03-10T16:27:21.611Z,2.00
2019-03-10T16:29:51.764Z,1.43
2019-03-10T16:32:22.448Z,1.50
2019-03-10T16:34:52.687Z,1.80
2019-03-10T16:37:22.970Z,1.67
2019-03-10T16:39:53.357Z,1.73
2019-03-10T16:42:23.728Z,1.63
2019-03-10T16:44:54.222Z,1.50
2019-03-10T16:47:24.542Z,2.50
2019-03-10T16:49:56.372Z,4.13
2019-03-10T16:52:26.562Z,4.90
2019-03-10T16:54:56.790Z,2.63
2019-03-10T16:57:27.428Z,1.53
2019-03-10T16:59:58.738Z,2.67
2019-03-10T17:02:30.592Z,1.37
2019-03-10T17:05:00.804Z,2.10
2019-03-10T17:07:31.001Z,2.13
2019-03-10T17:10:03.825Z,1.50
2019-03-10T17:12:34.087Z,2.40
2019-03-10T17:15:06.060Z,1.93
2019-03-10T17:17:39.105Z,2.13
2019-03-10T17:20:12.186Z,2.87
2019-03-10T17:22:42.441Z,1.43
2019-03-10T17:25:12.712Z,2.17
2019-03-10T17:27:44.553Z,2.00
2019-03-10T17:30:16.924Z,3.53
2019-03-10T17:32:49.741Z,1.90
2019-03-10T17:35:22.471Z,3.03
2019-03-10T17:37:53.006Z,5.40
2019-03-10T17:40:25.274Z,1.87
2019-03-10T17:42:55.695Z,2.10
2019-03-10T17:45:26.322Z,2.10
2019-03-10T17:47:56.683Z,2.73
2019-03-10T17:50:27.154Z,1.60
2019-03-10T17:53:00.646Z,3.23
2019-03-10T17:55:32.474Z,2.17
2019-03-10T17:58:04.992Z,4.33
2019-03-10T18:00:36.108Z,3.10
2019-03-10T18:03:06.416Z,3.30
2019-03-10T18:05:36.605Z,5.17
2019-03-10T18:08:06.866Z,3.43
2019-03-10T18:10:37.085Z,3.07
2019-03-10T18:13:07.334Z,2.90
2019-03-10T18:15:37.526Z,4.67
2019-03-10T18:18:07.646Z,2.43
2019-03-10T18:20:40.618Z,2.27
2019-03-10T18:23:12.614Z,3.77
2019-03-10T18:25:42.967Z,2.10
2019-03-10T18:28:13.279Z,3.40
2019-03-10T18:30:43.688Z,3.00
2019-03-10T18:33:13.994Z,3.80
2019-03-10T18:35:44.258Z,3.13
2019-03-10T18:38:15.084Z,2.12
2019-03-10T18:40:45.351Z,2.83
2019-03-10T18:43:15.939Z,5.03
2019-03-10T18:45:46.215Z,2.53
2019-03-10T18:48:17.429Z,4.80
2019-03-10T18:50:48.808Z,2.60
2019-03-10T18:53:18.991Z,3.60
2019-03-10T18:55:49.066Z,4.10
2019-03-10T18:58:21.196Z,4.53
2019-03-10T19:00:51.967Z,2.77
2019-03-10T19:03:22.210Z,2.75
2019-03-10T19:05:52.375Z,5.43
2019-03-10T19:08:22.650Z,4.15
2019-03-10T19:10:53.272Z,3.50
2019-03-10T19:13:23.455Z,5.10
2019-03-10T19:15:54.301Z,3.10
2019-03-10T19:18:24.524Z,4.20
2019-03-10T19:20:54.985Z,4.90
2019-03-10T19:23:25.247Z,4.57
2019-03-10T19:25:55.446Z,3.60
2019-03-10T19:28:28.102Z,4.70
2019-03-10T19:30:58.817Z,4.90
2019-03-10T19:33:29.319Z,3.50
2019-03-10T19:35:59.942Z,3.53
2019-03-10T19:38:30.362Z,4.20
2019-03-10T19:41:02.042Z,5.17
2019-03-10T19:43:33.614Z,4.60
2019-03-10T19:46:04.145Z,7.47
2019-03-10T19:48:34.251Z,3.90
2019-03-10T19:51:04.511Z,7.60
2019-03-10T19:53:35.044Z,5.90
2019-03-10T19:56:05.502Z,6.20
2019-03-10T19:58:35.599Z,4.90
2019-03-10T20:01:05.781Z,5.40
2019-03-10T20:03:36.153Z,6.43
2019-03-10T20:06:06.510Z,4.47
2019-03-10T20:08:36.721Z,6.07
2019-03-10T20:11:07.093Z,3.73
2019-03-10T20:13:38.578Z,6.13
2019-03-10T20:16:09.339Z,7.27
2019-03-10T20:18:41.074Z,5.50
2019-03-10T20:21:14.772Z,5.37
2019-03-10T20:23:45.305Z,7.10
2019-03-10T20:26:16.708Z,7.43
2019-03-10T20:28:47.209Z,6.40
2019-03-10T20:31:20.202Z,4.25
2019-03-10T20:33:52.360Z,3.90
2019-03-10T20:36:22.433Z,7.03
2019-03-10T20:38:52.720Z,4.57
2019-03-10T20:41:22.872Z,4.40
2019-03-10T20:43:53.319Z,5.20
2019-03-10T20:46:23.484Z,4.63
2019-03-10T20:48:53.805Z,7.07
2019-03-10T20:51:24.472Z,5.87
2019-03-10T20:53:54.964Z,6.27
2019-03-10T20:56:25.388Z,8.40
2019-03-10T20:58:56.673Z,5.50
2019-03-10T21:01:27.081Z,6.33
2019-03-10T21:03:57.361Z,5.53
2019-03-10T21:06:27.548Z,5.80
2019-03-10T21:09:02.599Z,4.63
2019-03-10T21:11:34.434Z,4.93
2019-03-10T21:14:06.667Z,5.73
2019-03-10T21:16:38.071Z,8.50
2019-03-10T21:19:08.581Z,5.37
2019-03-10T21:21:38.864Z,6.13
2019-03-10T21:24:09.039Z,5.03
2019-03-10T21:26:39.347Z,3.60
2019-03-10T21:29:11.651Z,5.67
2019-03-10T21:31:44.923Z,4.00
2019-03-10T21:34:17.028Z,3.57
2019-03-10T21:36:47.474Z,2.10
2019-03-10T21:39:17.598Z,3.30
2019-03-10T21:41:48.776Z,2.73
2019-03-10T21:44:26.642Z,4.63
2019-03-10T21:46:53.591Z,4.20
2019-03-10T21:49:23.868Z,4.37
2019-03-10T21:51:54.198Z,3.63
2019-03-10T21:54:24.727Z,5.00
2019-03-10T21:56:54.804Z,4.70
2019-03-10T21:59:25.013Z,6.30
2019-03-10T22:01:55.452Z,3.63
2019-03-10T22:04:25.673Z,8.03
2019-03-10T22:06:55.838Z,4.77
2019-03-10T22:09:26.032Z,5.73
2019-03-10T22:11:56.340Z,9.13
2019-03-10T22:14:28.643Z,5.50
2019-03-10T22:16:58.627Z,5.93
2019-03-10T22:19:29.552Z,7.17
2019-03-10T22:21:59.623Z,3.80
2019-03-10T22:24:29.806Z,7.40
2019-03-10T22:26:59.887Z,6.10
2019-03-10T22:29:30.504Z,4.87
2019-03-10T22:32:00.599Z,3.80
2019-03-10T22:34:30.894Z,5.67
2019-03-10T22:37:01.401Z,8.00
2019-03-10T22:39:33.600Z,9.30
2019-03-10T22:42:05.598Z,8.13
2019-03-10T22:44:35.858Z,5.77
2019-03-10T22:47:06.437Z,5.20
2019-03-10T22:49:36.777Z,9.47
2019-03-10T22:52:06.900Z,5.20
2019-03-10T22:54:36.984Z,4.30
2019-03-10T22:57:07.168Z,4.13
2019-03-10T22:59:38.295Z,4.13
2019-03-10T23:02:08.639Z,4.63
2019-03-10T23:04:38.834Z,5.30
2019-03-10T23:07:09.109Z,3.87
2019-03-10T23:09:39.248Z,7.77
2019-03-10T23:12:09.830Z,4.80
2019-03-10T23:14:40.024Z,5.03
2019-03-10T23:17:10.239Z,4.83
2019-03-10T23:19:40.369Z,6.67
2019-03-10T23:22:13.863Z,5.60
2019-03-10T23:24:51.400Z,7.23
2019-03-10T23:27:24.438Z,6.20
2019-03-10T23:29:54.533Z,4.23
2019-03-10T23:32:25.176Z,8.75
2019-03-10T23:34:56.302Z,6.57
2019-03-10T23:37:26.479Z,6.13
2019-03-10T23:39:56.558Z,3.77
2019-03-10T23:42:26.662Z,6.15
2019-03-10T23:44:56.978Z,6.33
2019-03-10T23:47:27.153Z,8.77
2019-03-10T23:49:57.450Z,8.97
2019-03-10T23:52:27.588Z,9.30
2019-03-10T23:54:57.899Z,4.97
2019-03-10T23:57:28.268Z,7.07
2019-03-10T23:59:58.398Z,4.30
